sensor_id;sensor_type;location;lat;lon;timestamp;temperature;humidity
18611;DHT22;9435;52.122;5.502;2024-02-15T00:02:14;12.70;99.90
18611;DHT22;9435;52.122;5.502;2024-02-15T00:04:41;12.70;99.90
18611;DHT22;9435;52.122;5.502;2024-02-15T00:07:11;12.70;99.90
18611;DHT22;9435;52.122;5.502;2024-02-15T00:09:39;12.60;99.90
18611;DHT22;9435;52.122;5.502;2024-02-15T00:12:06;12.70;99.90
18611;DHT22;9435;52.122;5.502;2024-02-15T00:14:33;12.70;99.90
18611;DHT22;9435;52.122;5.502;2024-02-15T00:17:00;12.60;99.90
18611;DHT22;9435;52.122;5.502;2024-02-15T00:19:28;12.70;99.90
18611;DHT22;9435;52.122;5.502;2024-02-15T00:21:56;12.60;99.90
18611;DHT22;9435;52.122;5.502;2024-02-15T00:24:24;12.70;99.90
18611;DHT22;9435;52.122;5.502;2024-02-15T00:26:51;12.60;99.90
18611;DHT22;9435;52.122;5.502;2024-02-15T00:29:19;12.60;99.90
18611;DHT22;9435;52.122;5.502;2024-02-15T00:31:46;12.60;99.90
18611;DHT22;9435;52.122;5.502;2024-02-15T00:34:15;12.60;99.90
18611;DHT22;9435;52.122;5.502;2024-02-15T00:36:43;12.60;99.90
18611;DHT22;9435;52.122;5.502;2024-02-15T00:39:10;12.60;99.90
18611;DHT22;9435;52.122;5.502;2024-02-15T00:41:39;12.60;99.90
18611;DHT22;9435;52.122;5.502;2024-02-15T00:44:08;12.60;99.90
18611;DHT22;9435;52.122;5.502;2024-02-15T00:46:36;12.70;99.90
18611;DHT22;9435;52.122;5.502;2024-02-15T00:49:03;12.60;99.90
18611;DHT22;9435;52.122;5.502;2024-02-15T00:51:32;12.60;99.90
18611;DHT22;9435;52.122;5.502;2024-02-15T00:54:00;12.60;99.90
18611;DHT22;9435;52.122;5.502;2024-02-15T00:56:27;12.50;99.90
18611;DHT22;9435;52.122;5.502;2024-02-15T00:58:57;12.50;99.90
18611;DHT22;9435;52.122;5.502;2024-02-15T01:01:24;12.60;99.90
18611;DHT22;9435;52.122;5.502;2024-02-15T01:03:51;12.60;99.90
18611;DHT22;9435;52.122;5.502;2024-02-15T01:06:18;12.60;99.90
18611;DHT22;9435;52.122;5.502;2024-02-15T01:08:45;12.60;99.90
18611;DHT22;9435;52.122;5.502;2024-02-15T01:11:12;12.50;99.90
18611;DHT22;9435;52.122;5.502;2024-02-15T01:13:39;12.50;99.90
18611;DHT22;9435;52.122;5.502;2024-02-15T01:16:08;12.50;99.90
18611;DHT22;9435;52.122;5.502;2024-02-15T01:18:36;12.50;99.90
18611;DHT22;9435;52.122;5.502;2024-02-15T01:21:04;12.50;99.90
18611;DHT22;9435;52.122;5.502;2024-02-15T01:23:31;12.50;99.90
18611;DHT22;9435;52.122;5.502;2024-02-15T01:26:01;12.50;99.90
18611;DHT22;9435;52.122;5.502;2024-02-15T01:28:28;12.50;99.90
18611;DHT22;9435;52.122;5.502;2024-02-15T01:30:55;12.50;99.90
18611;DHT22;9435;52.122;5.502;2024-02-15T01:33:23;12.60;99.90
18611;DHT22;9435;52.122;5.502;2024-02-15T01:35:50;12.50;99.90
18611;DHT22;9435;52.122;5.502;2024-02-15T01:38:17;12.50;99.90
18611;DHT22;9435;52.122;5.502;2024-02-15T01:40:46;12.60;99.90
18611;DHT22;9435;52.122;5.502;2024-02-15T01:43:14;12.50;99.90
18611;DHT22;9435;52.122;5.502;2024-02-15T01:45:41;12.60;99.90
18611;DHT22;9435;52.122;5.502;2024-02-15T01:48:09;12.60;99.90
18611;DHT22;9435;52.122;5.502;2024-02-15T01:50:38;12.60;99.90
18611;DHT22;9435;52.122;5.502;2024-02-15T01:53:08;12.60;99.90
18611;DHT22;9435;52.122;5.502;2024-02-15T01:55:37;12.70;99.90
18611;DHT22;9435;52.122;5.502;2024-02-15T01:58:05;12.60;99.90
18611;DHT22;9435;52.122;5.502;2024-02-15T02:00:32;12.60;99.90
18611;DHT22;9435;52.122;5.502;2024-02-15T02:03:03;12.60;99.90
18611;DHT22;9435;52.122;5.502;2024-02-15T02:05:30;12.60;99.90
18611;DHT22;9435;52.122;5.502;2024-02-15T02:07:59;12.60;99.90
18611;DHT22;9435;52.122;5.502;2024-02-15T02:10:30;12.60;99.90
18611;DHT22;9435;52.122;5.502;2024-02-15T02:12:59;12.60;99.90
18611;DHT22;9435;52.122;5.502;2024-02-15T02:15:27;12.60;99.90
18611;DHT22;9435;52.122;5.502;2024-02-15T02:17:54;12.70;99.90
18611;DHT22;9435;52.122;5.502;2024-02-15T02:20:21;12.60;99.90
18611;DHT22;9435;52.122;5.502;2024-02-15T02:22:51;12.60;99.90
18611;DHT22;9435;52.122;5.502;2024-02-15T02:25:23;12.60;99.90
18611;DHT22;9435;52.122;5.502;2024-02-15T02:27:52;12.60;99.90
18611;DHT22;9435;52.122;5.502;2024-02-15T02:30:20;12.60;99.90
18611;DHT22;9435;52.122;5.502;2024-02-15T02:32:48;12.50;99.90
18611;DHT22;9435;52.122;5.502;2024-02-15T02:35:15;12.50;99.90
18611;DHT22;9435;52.122;5.502;2024-02-15T02:37:43;12.60;99.90
18611;DHT22;9435;52.122;5.502;2024-02-15T02:40:11;12.50;99.90
18611;DHT22;9435;52.122;5.502;2024-02-15T02:42:48;12.50;99.90
18611;DHT22;9435;52.122;5.502;2024-02-15T02:45:16;12.50;99.90
18611;DHT22;9435;52.122;5.502;2024-02-15T02:47:45;12.50;99.90
18611;DHT22;9435;52.122;5.502;2024-02-15T02:50:13;12.50;99.90
18611;DHT22;9435;52.122;5.502;2024-02-15T02:52:40;12.50;99.90
18611;DHT22;9435;52.122;5.502;2024-02-15T02:55:07;12.50;99.90
18611;DHT22;9435;52.122;5.502;2024-02-15T02:57:35;12.40;99.90
18611;DHT22;9435;52.122;5.502;2024-02-15T03:00:05;12.50;99.90
18611;DHT22;9435;52.122;5.502;2024-02-15T03:02:36;12.40;99.90
18611;DHT22;9435;52.122;5.502;2024-02-15T03:05:03;12.50;99.90
18611;DHT22;9435;52.122;5.502;2024-02-15T03:07:33;12.40;99.90
18611;DHT22;9435;52.122;5.502;2024-02-15T03:10:00;12.50;99.90
18611;DHT22;9435;52.122;5.502;2024-02-15T03:12:30;12.50;99.90
18611;DHT22;9435;52.122;5.502;2024-02-15T03:14:57;12.40;99.90
18611;DHT22;9435;52.122;5.502;2024-02-15T03:17:25;12.40;99.90
18611;DHT22;9435;52.122;5.502;2024-02-15T03:19:53;12.40;99.90
18611;DHT22;9435;52.122;5.502;2024-02-15T03:22:21;12.50;99.90
18611;DHT22;9435;52.122;5.502;2024-02-15T03:24:51;12.40;99.90
18611;DHT22;9435;52.122;5.502;2024-02-15T03:27:18;12.40;99.90
18611;DHT22;9435;52.122;5.502;2024-02-15T03:29:49;12.50;99.90
18611;DHT22;9435;52.122;5.502;2024-02-15T03:32:17;12.50;99.90
18611;DHT22;9435;52.122;5.502;2024-02-15T03:34:45;12.50;99.90
18611;DHT22;9435;52.122;5.502;2024-02-15T03:37:12;12.40;99.90
18611;DHT22;9435;52.122;5.502;2024-02-15T03:39:39;12.50;99.90
18611;DHT22;9435;52.122;5.502;2024-02-15T03:42:06;12.50;99.90
18611;DHT22;9435;52.122;5.502;2024-02-15T03:44:33;12.40;99.90
18611;DHT22;9435;52.122;5.502;2024-02-15T03:47:01;12.40;99.90
18611;DHT22;9435;52.122;5.502;2024-02-15T03:49:28;12.40;99.90
18611;DHT22;9435;52.122;5.502;2024-02-15T03:51:57;12.40;99.90
18611;DHT22;9435;52.122;5.502;2024-02-15T03:54:25;12.40;99.90
18611;DHT22;9435;52.122;5.502;2024-02-15T03:56:51;12.30;99.90
18611;DHT22;9435;52.122;5.502;2024-02-15T03:59:20;12.40;99.90
18611;DHT22;9435;52.122;5.502;2024-02-15T04:01:50;12.40;99.90
18611;DHT22;9435;52.122;5.502;2024-02-15T04:04:18;12.40;99.90
18611;DHT22;9435;52.122;5.502;2024-02-15T04:06:46;12.30;99.90
18611;DHT22;9435;52.122;5.502;2024-02-15T04:09:15;12.30;99.90
18611;DHT22;9435;52.122;5.502;2024-02-15T04:11:43;12.30;99.90
18611;DHT22;9435;52.122;5.502;2024-02-15T04:14:12;12.40;99.90
18611;DHT22;9435;52.122;5.502;2024-02-15T04:16:39;12.30;99.90
18611;DHT22;9435;52.122;5.502;2024-02-15T04:19:06;12.40;99.90
18611;DHT22;9435;52.122;5.502;2024-02-15T04:21:33;12.40;99.90
18611;DHT22;9435;52.122;5.502;2024-02-15T04:24:00;12.30;99.90
18611;DHT22;9435;52.122;5.502;2024-02-15T04:26:29;12.40;99.90
18611;DHT22;9435;52.122;5.502;2024-02-15T04:28:58;12.30;99.90
18611;DHT22;9435;52.122;5.502;2024-02-15T04:31:25;12.30;99.90
18611;DHT22;9435;52.122;5.502;2024-02-15T04:33:53;12.30;99.90
18611;DHT22;9435;52.122;5.502;2024-02-15T04:36:21;12.30;99.90
18611;DHT22;9435;52.122;5.502;2024-02-15T04:38:50;12.30;99.90
18611;DHT22;9435;52.122;5.502;2024-02-15T04:41:18;12.30;99.90
18611;DHT22;9435;52.122;5.502;2024-02-15T04:43:50;12.30;99.90
18611;DHT22;9435;52.122;5.502;2024-02-15T04:46:17;12.30;99.90
18611;DHT22;9435;52.122;5.502;2024-02-15T04:48:46;12.40;99.90
18611;DHT22;9435;52.122;5.502;2024-02-15T04:51:15;12.40;99.90
18611;DHT22;9435;52.122;5.502;2024-02-15T04:53:43;12.30;99.90
18611;DHT22;9435;52.122;5.502;2024-02-15T04:56:12;12.40;99.90
18611;DHT22;9435;52.122;5.502;2024-02-15T04:58:40;12.50;99.90
18611;DHT22;9435;52.122;5.502;2024-02-15T05:01:14;12.40;99.90
18611;DHT22;9435;52.122;5.502;2024-02-15T05:03:42;12.40;99.90
18611;DHT22;9435;52.122;5.502;2024-02-15T05:06:09;12.40;99.90
18611;DHT22;9435;52.122;5.502;2024-02-15T05:08:38;12.40;99.90
18611;DHT22;9435;52.122;5.502;2024-02-15T05:11:08;12.50;99.90
18611;DHT22;9435;52.122;5.502;2024-02-15T05:13:40;12.40;99.90
18611;DHT22;9435;52.122;5.502;2024-02-15T05:16:07;12.50;99.90
18611;DHT22;9435;52.122;5.502;2024-02-15T05:18:36;12.40;99.90
18611;DHT22;9435;52.122;5.502;2024-02-15T05:21:05;12.40;99.90
18611;DHT22;9435;52.122;5.502;2024-02-15T05:23:35;12.40;99.90
18611;DHT22;9435;52.122;5.502;2024-02-15T05:26:02;12.50;99.90
18611;DHT22;9435;52.122;5.502;2024-02-15T05:28:30;12.40;99.90
18611;DHT22;9435;52.122;5.502;2024-02-15T05:31:13;12.50;99.90
18611;DHT22;9435;52.122;5.502;2024-02-15T05:33:44;12.40;99.90
18611;DHT22;9435;52.122;5.502;2024-02-15T05:36:13;12.50;99.90
18611;DHT22;9435;52.122;5.502;2024-02-15T05:38:40;12.50;99.90
18611;DHT22;9435;52.122;5.502;2024-02-15T05:41:11;12.50;99.90
18611;DHT22;9435;52.122;5.502;2024-02-15T05:43:39;12.50;99.90
18611;DHT22;9435;52.122;5.502;2024-02-15T05:46:07;12.50;99.90
18611;DHT22;9435;52.122;5.502;2024-02-15T05:48:35;12.50;99.90
18611;DHT22;9435;52.122;5.502;2024-02-15T05:51:04;12.40;99.90
18611;DHT22;9435;52.122;5.502;2024-02-15T05:53:31;12.60;99.90
18611;DHT22;9435;52.122;5.502;2024-02-15T05:56:01;12.50;99.90
18611;DHT22;9435;52.122;5.502;2024-02-15T05:58:29;12.60;99.90
18611;DHT22;9435;52.122;5.502;2024-02-15T06:00:57;12.60;99.90
18611;DHT22;9435;52.122;5.502;2024-02-15T06:03:27;12.50;99.90
18611;DHT22;9435;52.122;5.502;2024-02-15T06:05:54;12.60;99.90
18611;DHT22;9435;52.122;5.502;2024-02-15T06:08:25;12.50;99.90
18611;DHT22;9435;52.122;5.502;2024-02-15T06:10:53;12.50;99.90
18611;DHT22;9435;52.122;5.502;2024-02-15T06:13:20;12.50;99.90
18611;DHT22;9435;52.122;5.502;2024-02-15T06:15:47;12.50;99.90
18611;DHT22;9435;52.122;5.502;2024-02-15T06:18:18;12.60;99.90
18611;DHT22;9435;52.122;5.502;2024-02-15T06:20:47;12.60;99.90
18611;DHT22;9435;52.122;5.502;2024-02-15T06:23:16;12.60;99.90
18611;DHT22;9435;52.122;5.502;2024-02-15T06:25:46;12.50;99.90
18611;DHT22;9435;52.122;5.502;2024-02-15T06:28:13;12.50;99.90
18611;DHT22;9435;52.122;5.502;2024-02-15T06:31:00;12.60;99.90
18611;DHT22;9435;52.122;5.502;2024-02-15T06:33:44;12.60;99.90
18611;DHT22;9435;52.122;5.502;2024-02-15T06:36:29;12.60;99.90
18611;DHT22;9435;52.122;5.502;2024-02-15T06:39:13;12.50;99.90
18611;DHT22;9435;52.122;5.502;2024-02-15T06:42:00;12.60;99.90
18611;DHT22;9435;52.122;5.502;2024-02-15T06:44:27;12.60;99.90
18611;DHT22;9435;52.122;5.502;2024-02-15T06:46:55;12.50;99.90
18611;DHT22;9435;52.122;5.502;2024-02-15T06:49:23;12.60;99.90
18611;DHT22;9435;52.122;5.502;2024-02-15T06:51:51;12.60;99.90
18611;DHT22;9435;52.122;5.502;2024-02-15T06:54:19;12.50;99.90
18611;DHT22;9435;52.122;5.502;2024-02-15T06:56:46;12.50;99.90
18611;DHT22;9435;52.122;5.502;2024-02-15T06:59:14;12.60;99.90
18611;DHT22;9435;52.122;5.502;2024-02-15T07:01:43;12.60;99.90
18611;DHT22;9435;52.122;5.502;2024-02-15T07:04:10;12.60;99.90
18611;DHT22;9435;52.122;5.502;2024-02-15T07:06:38;12.60;99.90
18611;DHT22;9435;52.122;5.502;2024-02-15T07:09:05;12.60;99.90
18611;DHT22;9435;52.122;5.502;2024-02-15T07:11:32;12.60;99.90
18611;DHT22;9435;52.122;5.502;2024-02-15T07:14:00;12.60;99.90
18611;DHT22;9435;52.122;5.502;2024-02-15T07:16:29;12.70;99.90
18611;DHT22;9435;52.122;5.502;2024-02-15T07:18:56;12.60;99.90
18611;DHT22;9435;52.122;5.502;2024-02-15T07:21:23;12.60;99.90
18611;DHT22;9435;52.122;5.502;2024-02-15T07:23:53;12.70;99.90
18611;DHT22;9435;52.122;5.502;2024-02-15T07:26:20;12.70;99.90
18611;DHT22;9435;52.122;5.502;2024-02-15T07:28:50;12.60;99.90
18611;DHT22;9435;52.122;5.502;2024-02-15T07:31:18;12.60;99.90
18611;DHT22;9435;52.122;5.502;2024-02-15T07:33:48;12.60;99.90
18611;DHT22;9435;52.122;5.502;2024-02-15T07:36:18;12.60;99.90
18611;DHT22;9435;52.122;5.502;2024-02-15T07:38:47;12.70;99.90
18611;DHT22;9435;52.122;5.502;2024-02-15T07:41:15;12.60;99.90
18611;DHT22;9435;52.122;5.502;2024-02-15T07:43:43;12.60;99.90
18611;DHT22;9435;52.122;5.502;2024-02-15T07:46:12;12.60;99.90
18611;DHT22;9435;52.122;5.502;2024-02-15T07:48:42;12.70;99.90
18611;DHT22;9435;52.122;5.502;2024-02-15T07:51:12;12.60;99.90
18611;DHT22;9435;52.122;5.502;2024-02-15T07:53:41;12.70;99.90
18611;DHT22;9435;52.122;5.502;2024-02-15T07:56:08;12.70;99.90
18611;DHT22;9435;52.122;5.502;2024-02-15T07:58:38;12.60;99.90
18611;DHT22;9435;52.122;5.502;2024-02-15T08:01:08;12.60;99.90
18611;DHT22;9435;52.122;5.502;2024-02-15T08:03:36;12.70;99.90
18611;DHT22;9435;52.122;5.502;2024-02-15T08:06:03;12.60;99.90
18611;DHT22;9435;52.122;5.502;2024-02-15T08:08:34;12.70;99.90
18611;DHT22;9435;52.122;5.502;2024-02-15T08:11:02;12.60;99.90
18611;DHT22;9435;52.122;5.502;2024-02-15T08:13:30;12.60;99.90
18611;DHT22;9435;52.122;5.502;2024-02-15T08:15:57;12.70;99.90
18611;DHT22;9435;52.122;5.502;2024-02-15T08:18:24;12.70;99.90
18611;DHT22;9435;52.122;5.502;2024-02-15T08:20:51;12.70;99.90
18611;DHT22;9435;52.122;5.502;2024-02-15T08:23:19;12.60;99.90
18611;DHT22;9435;52.122;5.502;2024-02-15T08:25:47;12.60;99.90
18611;DHT22;9435;52.122;5.502;2024-02-15T08:28:15;12.70;99.90
18611;DHT22;9435;52.122;5.502;2024-02-15T08:30:42;12.60;99.90
18611;DHT22;9435;52.122;5.502;2024-02-15T08:33:09;12.70;99.90
18611;DHT22;9435;52.122;5.502;2024-02-15T08:35:37;12.70;99.90
18611;DHT22;9435;52.122;5.502;2024-02-15T08:38:06;12.70;99.90
18611;DHT22;9435;52.122;5.502;2024-02-15T08:40:33;12.70;99.90
18611;DHT22;9435;52.122;5.502;2024-02-15T08:43:02;12.80;99.90
18611;DHT22;9435;52.122;5.502;2024-02-15T08:45:30;12.70;99.90
18611;DHT22;9435;52.122;5.502;2024-02-15T08:47:57;12.80;99.90
18611;DHT22;9435;52.122;5.502;2024-02-15T08:50:24;12.70;99.90
18611;DHT22;9435;52.122;5.502;2024-02-15T08:52:51;12.80;99.90
18611;DHT22;9435;52.122;5.502;2024-02-15T08:55:18;12.80;99.90
18611;DHT22;9435;52.122;5.502;2024-02-15T08:57:49;12.80;99.90
18611;DHT22;9435;52.122;5.502;2024-02-15T09:00:18;12.80;99.90
18611;DHT22;9435;52.122;5.502;2024-02-15T09:02:45;12.80;99.90
18611;DHT22;9435;52.122;5.502;2024-02-15T09:05:13;12.90;99.90
18611;DHT22;9435;52.122;5.502;2024-02-15T09:07:40;12.90;99.90
18611;DHT22;9435;52.122;5.502;2024-02-15T09:10:09;12.80;99.90
18611;DHT22;9435;52.122;5.502;2024-02-15T09:12:37;12.90;99.90
18611;DHT22;9435;52.122;5.502;2024-02-15T09:15:06;13.00;99.90
18611;DHT22;9435;52.122;5.502;2024-02-15T09:17:35;13.00;99.90
18611;DHT22;9435;52.122;5.502;2024-02-15T09:20:06;13.00;99.90
18611;DHT22;9435;52.122;5.502;2024-02-15T09:22:34;12.90;99.90
18611;DHT22;9435;52.122;5.502;2024-02-15T09:25:02;13.00;99.90
18611;DHT22;9435;52.122;5.502;2024-02-15T09:27:29;12.90;99.90
18611;DHT22;9435;52.122;5.502;2024-02-15T09:29:56;12.90;99.90
18611;DHT22;9435;52.122;5.502;2024-02-15T09:32:23;13.00;99.90
18611;DHT22;9435;52.122;5.502;2024-02-15T09:34:51;13.00;99.90
18611;DHT22;9435;52.122;5.502;2024-02-15T09:37:19;13.00;99.90
18611;DHT22;9435;52.122;5.502;2024-02-15T09:39:46;13.00;99.90
18611;DHT22;9435;52.122;5.502;2024-02-15T09:42:13;13.00;99.90
18611;DHT22;9435;52.122;5.502;2024-02-15T09:44:40;13.00;99.90
18611;DHT22;9435;52.122;5.502;2024-02-15T09:47:12;13.00;99.90
18611;DHT22;9435;52.122;5.502;2024-02-15T09:49:42;13.10;99.90
18611;DHT22;9435;52.122;5.502;2024-02-15T09:52:10;13.10;99.90
18611;DHT22;9435;52.122;5.502;2024-02-15T09:54:41;13.10;99.90
18611;DHT22;9435;52.122;5.502;2024-02-15T09:57:09;13.10;99.90
18611;DHT22;9435;52.122;5.502;2024-02-15T09:59:37;13.00;99.90
18611;DHT22;9435;52.122;5.502;2024-02-15T10:02:06;13.00;99.90
18611;DHT22;9435;52.122;5.502;2024-02-15T10:04:37;13.10;99.90
18611;DHT22;9435;52.122;5.502;2024-02-15T10:07:04;13.00;99.90
18611;DHT22;9435;52.122;5.502;2024-02-15T10:09:32;13.00;99.90
18611;DHT22;9435;52.122;5.502;2024-02-15T10:12:03;13.00;99.90
18611;DHT22;9435;52.122;5.502;2024-02-15T10:14:33;13.10;99.90
18611;DHT22;9435;52.122;5.502;2024-02-15T10:17:06;13.10;99.90
18611;DHT22;9435;52.122;5.502;2024-02-15T10:19:35;13.10;99.90
18611;DHT22;9435;52.122;5.502;2024-02-15T10:22:06;13.20;99.90
18611;DHT22;9435;52.122;5.502;2024-02-15T10:24:35;13.10;99.90
18611;DHT22;9435;52.122;5.502;2024-02-15T10:27:05;13.00;99.90
18611;DHT22;9435;52.122;5.502;2024-02-15T10:29:33;13.20;99.90
18611;DHT22;9435;52.122;5.502;2024-02-15T10:32:01;13.20;99.90
18611;DHT22;9435;52.122;5.502;2024-02-15T10:34:29;13.20;99.90
18611;DHT22;9435;52.122;5.502;2024-02-15T10:37:11;13.20;99.90
18611;DHT22;9435;52.122;5.502;2024-02-15T10:39:40;13.20;99.90
18611;DHT22;9435;52.122;5.502;2024-02-15T10:42:07;13.20;99.90
18611;DHT22;9435;52.122;5.502;2024-02-15T10:44:37;13.30;99.90
18611;DHT22;9435;52.122;5.502;2024-02-15T10:47:07;13.30;99.90
18611;DHT22;9435;52.122;5.502;2024-02-15T10:49:34;13.30;99.90
18611;DHT22;9435;52.122;5.502;2024-02-15T10:52:04;13.40;99.90
18611;DHT22;9435;52.122;5.502;2024-02-15T10:54:46;13.40;99.90
18611;DHT22;9435;52.122;5.502;2024-02-15T10:57:15;13.40;99.90
18611;DHT22;9435;52.122;5.502;2024-02-15T10:59:54;13.40;99.90
18611;DHT22;9435;52.122;5.502;2024-02-15T11:02:27;13.50;99.90
18611;DHT22;9435;52.122;5.502;2024-02-15T11:04:58;13.50;99.90
18611;DHT22;9435;52.122;5.502;2024-02-15T11:07:29;13.50;99.90
18611;DHT22;9435;52.122;5.502;2024-02-15T11:09:59;13.60;99.90
18611;DHT22;9435;52.122;5.502;2024-02-15T11:12:28;13.70;99.90
18611;DHT22;9435;52.122;5.502;2024-02-15T11:14:56;13.70;99.90
18611;DHT22;9435;52.122;5.502;2024-02-15T11:17:46;13.70;99.90
18611;DHT22;9435;52.122;5.502;2024-02-15T11:20:48;13.70;99.90
18611;DHT22;9435;52.122;5.502;2024-02-15T11:23:25;13.80;99.90
18611;DHT22;9435;52.122;5.502;2024-02-15T11:25:57;13.70;99.90
18611;DHT22;9435;52.122;5.502;2024-02-15T11:28:39;13.70;99.90
18611;DHT22;9435;52.122;5.502;2024-02-15T11:34:42;13.70;99.90
18611;DHT22;9435;52.122;5.502;2024-02-15T11:40:12;13.80;99.90
18611;DHT22;9435;52.122;5.502;2024-02-15T11:42:41;13.70;99.90
18611;DHT22;9435;52.122;5.502;2024-02-15T11:45:08;13.70;99.90
18611;DHT22;9435;52.122;5.502;2024-02-15T11:47:38;13.70;99.90
18611;DHT22;9435;52.122;5.502;2024-02-15T11:50:08;13.80;99.90
18611;DHT22;9435;52.122;5.502;2024-02-15T11:52:38;13.80;99.90
18611;DHT22;9435;52.122;5.502;2024-02-15T11:55:07;13.80;99.90
18611;DHT22;9435;52.122;5.502;2024-02-15T11:57:36;13.80;99.90
18611;DHT22;9435;52.122;5.502;2024-02-15T12:00:24;13.80;99.90
18611;DHT22;9435;52.122;5.502;2024-02-15T12:03:09;13.80;99.90
18611;DHT22;9435;52.122;5.502;2024-02-15T12:05:54;13.80;99.90
18611;DHT22;9435;52.122;5.502;2024-02-15T12:08:38;13.90;99.90
18611;DHT22;9435;52.122;5.502;2024-02-15T12:11:23;13.90;99.90
18611;DHT22;9435;52.122;5.502;2024-02-15T12:14:12;13.90;99.90
18611;DHT22;9435;52.122;5.502;2024-02-15T12:17:04;13.90;99.90
18611;DHT22;9435;52.122;5.502;2024-02-15T12:20:01;13.90;99.90
18611;DHT22;9435;52.122;5.502;2024-02-15T12:22:35;13.90;99.90
18611;DHT22;9435;52.122;5.502;2024-02-15T12:25:07;13.90;99.90
18611;DHT22;9435;52.122;5.502;2024-02-15T12:27:37;13.90;99.90
18611;DHT22;9435;52.122;5.502;2024-02-15T12:30:06;14.00;99.90
18611;DHT22;9435;52.122;5.502;2024-02-15T12:32:36;13.90;99.90
18611;DHT22;9435;52.122;5.502;2024-02-15T12:35:10;14.00;99.90
18611;DHT22;9435;52.122;5.502;2024-02-15T12:37:41;14.00;99.90
18611;DHT22;9435;52.122;5.502;2024-02-15T12:40:12;14.10;99.90
18611;DHT22;9435;52.122;5.502;2024-02-15T12:42:42;14.10;99.90
18611;DHT22;9435;52.122;5.502;2024-02-15T12:45:20;14.20;99.90
18611;DHT22;9435;52.122;5.502;2024-02-15T12:47:50;14.20;99.90
18611;DHT22;9435;52.122;5.502;2024-02-15T12:50:18;14.20;99.90
18611;DHT22;9435;52.122;5.502;2024-02-15T12:52:46;14.30;99.90
18611;DHT22;9435;52.122;5.502;2024-02-15T12:55:16;14.40;99.90
18611;DHT22;9435;52.122;5.502;2024-02-15T12:57:47;14.40;99.90
18611;DHT22;9435;52.122;5.502;2024-02-15T13:00:18;14.40;99.90
18611;DHT22;9435;52.122;5.502;2024-02-15T13:02:49;14.50;99.90
18611;DHT22;9435;52.122;5.502;2024-02-15T13:05:17;14.50;99.90
18611;DHT22;9435;52.122;5.502;2024-02-15T13:07:46;14.60;99.90
18611;DHT22;9435;52.122;5.502;2024-02-15T13:10:13;14.60;99.90
18611;DHT22;9435;52.122;5.502;2024-02-15T13:12:41;14.70;99.90
18611;DHT22;9435;52.122;5.502;2024-02-15T13:15:10;14.70;99.90
18611;DHT22;9435;52.122;5.502;2024-02-15T13:17:42;14.80;99.90
18611;DHT22;9435;52.122;5.502;2024-02-15T13:20:11;14.70;99.90
18611;DHT22;9435;52.122;5.502;2024-02-15T13:22:39;14.70;99.90
18611;DHT22;9435;52.122;5.502;2024-02-15T13:25:07;14.70;99.90
18611;DHT22;9435;52.122;5.502;2024-02-15T13:27:35;14.70;99.90
18611;DHT22;9435;52.122;5.502;2024-02-15T13:30:04;14.70;99.90
18611;DHT22;9435;52.122;5.502;2024-02-15T13:32:35;14.80;99.90
18611;DHT22;9435;52.122;5.502;2024-02-15T13:35:03;14.80;99.90
18611;DHT22;9435;52.122;5.502;2024-02-15T13:37:41;14.80;99.90
18611;DHT22;9435;52.122;5.502;2024-02-15T13:40:12;14.80;99.90
18611;DHT22;9435;52.122;5.502;2024-02-15T13:42:42;14.80;99.90
18611;DHT22;9435;52.122;5.502;2024-02-15T13:45:15;14.90;99.90
18611;DHT22;9435;52.122;5.502;2024-02-15T13:47:44;14.80;99.90
18611;DHT22;9435;52.122;5.502;2024-02-15T13:50:12;14.80;99.90
18611;DHT22;9435;52.122;5.502;2024-02-15T13:52:42;14.80;99.90
18611;DHT22;9435;52.122;5.502;2024-02-15T13:55:11;14.80;99.90
18611;DHT22;9435;52.122;5.502;2024-02-15T13:57:39;14.80;99.90
18611;DHT22;9435;52.122;5.502;2024-02-15T14:00:07;14.80;99.90
18611;DHT22;9435;52.122;5.502;2024-02-15T14:02:39;14.80;99.90
18611;DHT22;9435;52.122;5.502;2024-02-15T14:05:09;14.80;99.90
18611;DHT22;9435;52.122;5.502;2024-02-15T14:07:37;14.90;99.90
18611;DHT22;9435;52.122;5.502;2024-02-15T14:10:07;15.00;99.90
18611;DHT22;9435;52.122;5.502;2024-02-15T14:12:34;14.90;99.90
18611;DHT22;9435;52.122;5.502;2024-02-15T14:15:02;14.90;99.90
18611;DHT22;9435;52.122;5.502;2024-02-15T14:17:31;14.90;99.90
18611;DHT22;9435;52.122;5.502;2024-02-15T14:19:59;14.90;99.90
18611;DHT22;9435;52.122;5.502;2024-02-15T14:22:26;14.90;99.90
18611;DHT22;9435;52.122;5.502;2024-02-15T14:24:55;14.90;99.90
18611;DHT22;9435;52.122;5.502;2024-02-15T14:27:23;14.90;99.90
18611;DHT22;9435;52.122;5.502;2024-02-15T14:29:50;14.90;99.90
18611;DHT22;9435;52.122;5.502;2024-02-15T14:32:35;14.90;99.90
18611;DHT22;9435;52.122;5.502;2024-02-15T14:35:19;14.80;99.90
18611;DHT22;9435;52.122;5.502;2024-02-15T14:37:47;14.80;99.90
18611;DHT22;9435;52.122;5.502;2024-02-15T14:40:14;14.70;99.90
18611;DHT22;9435;52.122;5.502;2024-02-15T14:42:44;14.70;99.90
18611;DHT22;9435;52.122;5.502;2024-02-15T14:45:11;14.70;99.90
18611;DHT22;9435;52.122;5.502;2024-02-15T14:47:39;14.70;99.90
18611;DHT22;9435;52.122;5.502;2024-02-15T14:50:08;14.70;99.90
18611;DHT22;9435;52.122;5.502;2024-02-15T14:52:38;14.60;99.90
18611;DHT22;9435;52.122;5.502;2024-02-15T14:55:06;14.60;99.90
18611;DHT22;9435;52.122;5.502;2024-02-15T14:57:33;14.60;99.90
18611;DHT22;9435;52.122;5.502;2024-02-15T15:00:03;14.60;99.90
18611;DHT22;9435;52.122;5.502;2024-02-15T15:02:30;14.60;99.90
18611;DHT22;9435;52.122;5.502;2024-02-15T15:04:57;14.60;99.90
18611;DHT22;9435;52.122;5.502;2024-02-15T15:07:46;14.60;99.90
18611;DHT22;9435;52.122;5.502;2024-02-15T15:10:30;14.60;99.90
18611;DHT22;9435;52.122;5.502;2024-02-15T15:13:15;14.60;99.90
18611;DHT22;9435;52.122;5.502;2024-02-15T15:15:44;14.60;99.90
18611;DHT22;9435;52.122;5.502;2024-02-15T15:18:13;14.60;99.90
18611;DHT22;9435;52.122;5.502;2024-02-15T15:20:40;14.60;99.90
18611;DHT22;9435;52.122;5.502;2024-02-15T15:23:07;14.60;99.90
18611;DHT22;9435;52.122;5.502;2024-02-15T15:25:35;14.60;99.90
18611;DHT22;9435;52.122;5.502;2024-02-15T15:28:04;14.60;99.90
18611;DHT22;9435;52.122;5.502;2024-02-15T15:30:31;14.60;99.90
18611;DHT22;9435;52.122;5.502;2024-02-15T15:32:59;14.60;99.90
18611;DHT22;9435;52.122;5.502;2024-02-15T15:35:27;14.60;99.90
18611;DHT22;9435;52.122;5.502;2024-02-15T15:37:55;14.60;99.90
18611;DHT22;9435;52.122;5.502;2024-02-15T15:40:23;14.50;99.90
18611;DHT22;9435;52.122;5.502;2024-02-15T15:42:50;14.50;99.90
18611;DHT22;9435;52.122;5.502;2024-02-15T15:45:17;14.50;99.90
18611;DHT22;9435;52.122;5.502;2024-02-15T15:47:44;14.50;99.90
18611;DHT22;9435;52.122;5.502;2024-02-15T15:50:13;14.50;99.90
18611;DHT22;9435;52.122;5.502;2024-02-15T15:52:40;14.50;99.90
18611;DHT22;9435;52.122;5.502;2024-02-15T15:55:08;14.50;99.90
18611;DHT22;9435;52.122;5.502;2024-02-15T15:57:37;14.50;99.90
18611;DHT22;9435;52.122;5.502;2024-02-15T16:00:07;14.40;99.90
18611;DHT22;9435;52.122;5.502;2024-02-15T16:02:39;14.40;99.90
18611;DHT22;9435;52.122;5.502;2024-02-15T16:05:07;14.40;99.90
18611;DHT22;9435;52.122;5.502;2024-02-15T16:07:36;14.40;99.90